Terminal Aerodrome Forecast
Issued by NWS

Home | Current Version | Previous Version | Graphics & Text | Print | Product List | Glossary On
Versions: 1 2 3 4 5 6 7 8 9 10 11 12 13 14 15 16 17 18 19 20 21 22 23 24
000
FTUS43 KGRB 241135
TAFCWA
TAF
KCWA 241135Z 2412/2512 17005KT P6SM SCT050 BKN080
      TEMPO 2412/2415 5SM -SHRA BKN050
     FM241600 23008G15KT P6SM BKN050
     FM242100 25006KT P6SM VCTS BKN050CB
     FM250100 30004KT P6SM SCT035 BKN250
     FM250400 10005KT P6SM SCT015 BKN250
      TEMPO 2508/2512 4SM BR BKN008=

USA.gov is the U.S. government's official web portal to all federal, state and local government web resources and services.